Time;durP1;ratioP1;P1;durP2;ratioP2;P2;SDS_P1;SDS_P2;PMS_P1;PMS_P2;Temp;Humidity;BMP_temperature;BMP_pressure;BME280_temperature;BME280_humidity;BME280_pressure;Samples;Min_cycle;Max_cycle;Signal;HPM_P1;HPM_P2
2023/05/28 00:05:23;;;;;;;;;11.33;10.33;;;;;18.64;56.39;101592.03;4960575;28;46136;-83
2023/05/28 00:07:49;;;;;;;;;8.00;7.67;;;;;18.50;55.97;101580.53;4993359;28;45697;-83
2023/05/28 00:14:48;;;;;;;;;8.00;7.33;;;;;18.94;57.82;101649.88;4969863;28;45763;-83
2023/05/28 00:24:13;;;;;;;;;11.00;9.00;;;;;18.30;57.96;101572.94;4946780;28;45800;-83
2023/05/28 00:27:30;;;;;;;;;9.00;9.00;;;;;18.00;57.17;101552.59;4951570;28;45351;-83
2023/05/28 00:31:20;;;;;;;;;;;;;;;;;;;;;
2023/05/28 00:33:56;;;;;;;;;13.67;10.33;;;;;18.60;58.31;101657.50;4977891;28;73226;-83
2023/05/28 00:40:55;;;;;;;;;;;;;;;;;;;;;
2023/05/28 00:44:16;;;;;;;;;9.67;9.33;;;;;18.25;60.46;101615.25;4988530;28;75340;-82
2023/05/28 00:47:25;;;;;;;;;10.00;10.00;;;;;18.37;59.53;101643.88;4946101;28;45694;-83
2023/05/28 00:50:48;;;;;;;;;9.33;9.33;;;;;18.33;59.96;101642.38;5006048;28;45577;-83
2023/05/28 00:54:13;;;;;;;;;13.67;11.33;;;;;17.71;60.42;101548.28;5070220;28;45483;-82
2023/05/28 00:57:23;;;;;;;;;10.00;7.67;;;;;18.27;61.53;101640.09;4944678;28;45664;-82
2023/05/28 01:07:06;;;;;;;;;14.67;10.33;;;;;17.82;61.65;101601.13;4881447;29;45468;-83
2023/05/28 01:10:20;;;;;;;;;13.67;11.00;;;;;18.02;63.20;101641.72;4902567;28;46967;-82
2023/05/28 01:17:16;;;;;;;;;12.00;11.33;;;;;17.99;63.43;101646.41;4890932;29;45590;-83
2023/05/28 01:20:05;;;;;;;;;10.67;10.00;;;;;17.46;62.46;101580.22;4898104;28;45258;-82
2023/05/28 01:26:05;;;;;;;;;13.67;11.00;;;;;17.54;63.40;101612.69;4894005;29;45805;-82
2023/05/28 01:32:50;;;;;;;;;7.00;4.67;;;;;17.75;64.80;101650.63;4882157;29;45812;-83
2023/05/28 01:36:23;;;;;;;;;13.33;7.67;;;;;17.36;63.95;101606.69;4873716;29;46485;-82
2023/05/28 01:42:40;;;;;;;;;14.33;12.00;;;;;17.30;65.15;101603.53;4918377;28;45539;-83
2023/05/28 01:45:17;;;;;;;;;12.67;9.00;;;;;17.15;66.76;101565.25;4971321;28;45545;-82
2023/05/28 01:56:02;;;;;;;;;14.00;9.00;;;;;17.46;67.82;101661.34;4951142;28;45639;-83
2023/05/28 01:59:14;;;;;;;;;13.00;11.67;;;;;16.80;67.17;101567.41;4980659;28;45480;-82
2023/05/28 02:01:41;;;;;;;;;13.67;10.00;;;;;17.24;67.52;101633.34;4964030;28;45456;-82
2023/05/28 02:04:57;;;;;;;;;14.00;11.00;;;;;17.17;66.82;101630.19;4962267;28;45558;-82
2023/05/28 02:11:44;;;;;;;;;;;;;;;;;;;;;
2023/05/28 02:21:52;;;;;;;;;;;;;;;;;;;;;
2023/05/28 02:24:18;;;;;;;;;16.33;12.00;;;;;16.45;70.12;101547.28;4870584;29;72196;-83
2023/05/28 02:30:53;;;;;;;;;17.67;13.33;;;;;17.04;70.22;101655.94;4823206;29;45461;-83
2023/05/28 02:33:53;;;;;;;;;15.33;12.00;;;;;17.00;71.49;101660.59;4824276;29;45787;-81
2023/05/28 02:43:16;;;;;;;;;13.00;12.33;;;;;16.28;73.14;101558.09;4860790;29;45370;-81
2023/05/28 02:45:50;;;;;;;;;15.33;11.67;;;;;16.27;72.96;101559.03;4861485;29;45626;-81
2023/05/28 02:55:59;;;;;;;;;15.33;13.00;;;;;16.61;73.53;101658.50;4918770;28;45749;-84
2023/05/28 03:01:46;;;;;;;;;18.67;16.00;;;;;16.11;74.54;101589.31;4988707;28;45990;-83
2023/05/28 03:05:02;;;;;;;;;12.33;11.67;;;;;15.93;75.20;101585.03;4974582;28;47668;-83
2023/05/28 03:15:15;;;;;;;;;14.00;12.67;;;;;16.16;76.67;101645.94;4986629;28;45647;-84
2023/05/28 03:18:08;;;;;;;;;12.33;9.67;;;;;16.19;76.93;101655.59;4969246;28;45807;-84
2023/05/28 03:21:01;;;;;;;;;14.67;13.33;;;;;16.19;76.29;101652.94;4996251;28;45539;-83
2023/05/28 03:30:47;;;;;;;;;15.33;12.00;;;;;16.17;79.37;101665.47;4925605;28;46441;-83
2023/05/28 03:33:16;;;;;;;;;16.33;11.67;;;;;15.62;80.20;101574.34;4939355;28;45391;-83
2023/05/28 03:36:11;;;;;;;;;15.67;13.33;;;;;15.54;79.63;101565.94;4969572;28;46104;-83
2023/05/28 03:39:28;;;;;;;;;;;;;;;;;;;;;
2023/05/28 03:42:07;;;;;;;;;18.33;13.33;;;;;15.58;80.78;101573.66;5043170;28;74705;-84
2023/05/28 03:44:33;;;;;;;;;15.00;11.00;;;;;15.65;81.37;101590.19;5043349;28;44757;-83
2023/05/28 03:51:21;;;;;;;;;20.00;19.67;;;;;15.51;81.45;101598.94;5056419;28;45530;-83
2023/05/28 03:54:51;;;;;;;;;;;;;;;;;;;;;
2023/05/28 03:58:16;;;;;;;;;;;;;;;;;;;;;
2023/05/28 04:00:47;;;;;;;;;22.67;17.00;;;;;15.72;84.29;101657.38;4906008;28;68119;-83
2023/05/28 04:08:06;;;;;;;;;18.00;16.33;;;;;15.43;82.68;101616.28;5036206;28;45831;-83
2023/05/28 04:10:32;;;;;;;;;16.67;15.33;;;;;15.22;83.36;101588.09;4997418;28;45342;-83
2023/05/28 04:13:28;;;;;;;;;;;;;;;;;;;;;
2023/05/28 04:20:35;;;;;;;;;;;;;;;;;;;;;
2023/05/28 04:23:49;;;;;;;;;16.33;14.33;;;;;15.68;84.46;101662.00;4905255;28;72970;-84
2023/05/28 04:27:06;;;;;;;;;27.00;17.67;;;;;15.22;84.32;101582.78;4939081;28;45329;-83
2023/05/28 04:33:50;;;;;;;;;22.33;17.00;;;;;15.66;84.85;101674.59;4926428;28;46509;-83
2023/05/28 04:36:29;;;;;;;;;15.00;14.67;;;;;15.00;85.25;101564.41;4929806;28;45761;-83
2023/05/28 04:40:11;;;;;;;;;16.33;14.00;;;;;15.55;85.35;101652.97;4914654;28;45426;-83
2023/05/28 04:50:30;;;;;;;;;;;;;;;;;;;;;
2023/05/28 04:53:44;;;;;;;;;;;;;;;;;;;;;
2023/05/28 04:56:10;;;;;;;;;23.67;19.67;;;;;15.38;83.32;101629.00;4724332;29;73084;-83
2023/05/28 05:02:23;;;;;;;;;21.67;18.33;;;;;15.39;81.99;101620.03;4848765;29;45297;-83
2023/05/28 05:04:51;;;;;;;;;20.33;15.67;;;;;15.87;81.48;101688.56;4832655;29;45627;-83
2023/05/28 05:11:05;;;;;;;;;22.33;18.00;;;;;16.07;82.20;101690.97;4862500;29;45639;-83
2023/05/28 05:18:03;;;;;;;;;16.00;14.67;;;;;16.25;80.95;101697.09;4824061;29;45672;-84
2023/05/28 05:28:09;;;;;;;;;19.00;16.67;;;;;16.52;77.57;101699.03;4976818;28;45540;-83
2023/05/28 05:30:36;;;;;;;;;17.00;15.67;;;;;16.28;79.38;101651.53;4906815;28;45572;-83
2023/05/28 05:37:02;;;;;;;;;24.67;17.33;;;;;16.75;75.19;101692.41;4913823;28;45714;-83
2023/05/28 05:39:57;;;;;;;;;19.67;17.33;;;;;16.30;75.89;101615.78;4918979;28;45551;-83
2023/05/28 05:56:42;;;;;;;;;17.00;15.67;;;;;16.78;71.21;101632.59;4879318;29;45545;-83
2023/05/28 06:00:20;;;;;;;;;17.33;17.00;;;;;17.00;71.42;101638.34;4937653;28;45633;-83
2023/05/28 06:10:54;;;;;;;;;19.00;18.00;;;;;17.28;69.93;101641.06;4875370;28;45350;-84
2023/05/28 06:16:53;;;;;;;;;18.00;15.00;;;;;17.20;67.63;101619.28;4916208;28;45737;-84
2023/05/28 06:20:16;;;;;;;;;18.00;15.67;;;;;17.36;68.26;101619.19;4938869;28;45385;-84
2023/05/28 06:23:07;;;;;;;;;15.00;11.67;;;;;17.79;66.95;101673.56;4897193;29;45516;-84
2023/05/28 06:29:11;;;;;;;;;18.67;16.67;;;;;18.06;66.21;101688.72;4939459;28;46233;-85
2023/05/28 06:46:16;;;;;;;;;19.67;17.67;;;;;18.34;64.35;101654.81;4920659;28;45606;-84
2023/05/28 06:49:33;;;;;;;;;;;;;;;;;;;;;
2023/05/28 06:52:29;;;;;;;;;19.00;16.00;;;;;19.02;64.26;101693.09;4933293;28;74444;-82
2023/05/28 06:59:34;;;;;;;;;16.00;16.00;;;;;18.62;62.06;101604.66;4986366;28;45391;-85
2023/05/28 07:19:39;;;;;;;;;17.33;14.67;;;;;19.54;60.24;101613.41;4760511;29;45402;-84
2023/05/28 07:26:24;;;;;;;;;19.00;17.33;;;;;20.01;57.46;101652.94;4848140;29;45547;-85
2023/05/28 07:29:31;;;;;;;;;14.67;14.33;;;;;19.83;58.44;101619.34;4959007;28;45446;-85
2023/05/28 07:46:37;;;;;;;;;17.00;13.00;;;;;21.13;55.96;101684.78;4874708;29;45354;-86
2023/05/28 07:50:12;;;;;;;;;;;;;;;;;;;;;
2023/05/28 08:11:13;;;;;;;;;16.00;13.67;;;;;22.36;53.75;101684.81;4800272;29;45491;-85
2023/05/28 08:24:33;;;;;;;;;10.67;10.67;;;;;;;;4854148;29;45577;-83
2023/05/28 08:34:23;;;;;;;;;11.67;11.33;;;;;23.48;51.44;101667.13;4904256;28;45588;-84
2023/05/28 08:36:48;;;;;;;;;11.67;10.00;;;;;23.05;50.58;101587.16;4997633;28;45474;-84
2023/05/28 08:43:01;;;;;;;;;13.33;9.67;;;;;23.33;49.39;101618.84;5014127;28;45490;-83
2023/05/28 08:46:20;;;;;;;;;13.33;9.33;;;;;23.36;50.23;101602.38;5023348;28;45519;-84
2023/05/28 08:49:20;;;;;;;;;9.00;9.00;;;;;23.51;49.73;101604.75;4961540;28;45441;-84
2023/05/28 08:52:05;;;;;;;;;12.00;10.00;;;;;23.41;49.40;101564.22;4975009;28;45409;-84
2023/05/28 09:02:31;;;;;;;;;4.67;3.00;;;;;23.63;46.40;101574.81;5051488;28;45404;-84
2023/05/28 09:04:45;;;;;;;;;11.00;9.00;;;;;23.93;48.52;101582.00;5049458;28;45610;-82
2023/05/28 09:07:34;;;;;;;;;10.00;9.00;;;;;23.98;49.08;101558.13;5045760;28;47984;-83
2023/05/28 09:10:05;;;;;;;;;9.00;8.33;;;;;24.21;46.49;101593.88;5029456;28;45302;-82
2023/05/28 09:12:31;;;;;;;;;6.67;6.67;;;;;24.52;47.22;101645.97;5060808;28;45513;-82
2023/05/28 09:16:03;;;;;;;;;9.67;9.67;;;;;24.78;48.76;101630.88;5067273;28;45516;-82
2023/05/28 09:19:28;;;;;;;;;8.33;7.67;;;;;25.08;48.59;101632.59;4949952;28;46106;-82
2023/05/28 09:22:20;;;;;;;;;15.00;9.67;;;;;25.08;45.22;101628.03;4997346;28;45325;-82
2023/05/28 09:35:25;;;;;;;;;;;;;;;;;;;;;
2023/05/28 09:38:24;;;;;;;;;10.33;9.33;;;;;25.14;46.45;101572.44;4975197;28;70234;-79
2023/05/28 09:41:01;;;;;;;;;13.33;10.67;;;;;25.37;46.96;101581.91;5028641;28;45442;-80
2023/05/28 09:46:51;;;;;;;;;10.00;10.00;;;;;25.38;43.93;101564.66;5056934;28;45468;-80
2023/05/28 09:49:48;;;;;;;;;;;;;;;;;;;;;
2023/05/28 09:52:33;;;;;;;;;9.67;8.67;;;;;25.52;45.24;101576.88;5055209;28;73664;-80
2023/05/28 09:55:20;;;;;;;;;12.33;10.67;;;;;25.82;45.07;101628.06;5034951;28;45724;-80
2023/05/28 09:58:11;;;;;;;;;9.67;8.00;;;;;25.60;44.35;101576.97;5035056;28;45584;-79
2023/05/28 10:01:18;;;;;;;;;9.33;8.67;;;;;25.67;45.43;101565.38;5044794;28;45400;-79
2023/05/28 10:03:57;;;;;;;;;11.67;8.00;;;;;25.86;45.24;101580.66;5037816;28;45519;-80
2023/05/28 10:06:33;;;;;;;;;10.67;7.00;;;;;25.80;44.38;101536.06;5038029;28;45496;-78
2023/05/28 10:09:04;;;;;;;;;11.67;10.67;;;;;26.27;43.26;101598.28;5039585;28;45513;-79
2023/05/28 10:11:45;;;;;;;;;10.33;8.67;;;;;25.87;42.67;101526.31;5040101;28;45492;-79
2023/05/28 10:14:19;;;;;;;;;10.00;6.00;;;;;25.91;42.24;101535.84;5038883;28;45692;-81
2023/05/28 10:16:46;;;;;;;;;13.33;10.00;;;;;26.10;43.36;101550.25;5042397;28;45567;-79
2023/05/28 10:19:12;;;;;;;;;11.33;9.00;;;;;26.11;43.80;101552.81;5040236;28;45539;-79
2023/05/28 10:21:38;;;;;;;;;10.00;7.67;;;;;26.25;42.84;101548.75;5062630;28;45328;-79
2023/05/28 10:24:08;;;;;;;;;8.00;6.33;;;;;26.41;41.68;101563.31;5045742;28;45499;-79
2023/05/28 10:26:33;;;;;;;;;10.67;8.67;;;;;26.61;43.06;101582.97;5045727;28;45613;-78
2023/05/28 10:29:19;;;;;;;;;11.00;8.00;;;;;26.42;42.40;101523.47;5043619;28;45389;-79
2023/05/28 10:31:56;;;;;;;;;27.67;24.67;;;;;26.79;40.17;101577.53;5041544;28;45299;-80
2023/05/28 10:34:33;;;;;;;;;11.00;11.00;;;;;26.77;40.53;101572.25;5039854;28;46380;-79
2023/05/28 10:37:08;;;;;;;;;7.33;6.67;;;;;27.00;41.02;101594.31;5032509;28;45539;-79
2023/05/28 10:39:46;;;;;;;;;10.67;8.33;;;;;26.88;39.69;101558.47;5056739;28;45405;-79
2023/05/28 10:42:22;;;;;;;;;6.67;6.00;;;;;26.93;40.44;101572.38;5032201;28;45449;-82
2023/05/28 10:45:06;;;;;;;;;9.33;7.00;;;;;27.19;39.02;101590.56;5061905;28;45504;-83
2023/05/28 10:47:35;;;;;;;;;9.00;8.00;;;;;27.42;42.50;101586.28;5052107;28;45410;-82
2023/05/28 10:50:31;;;;;;;;;7.00;5.33;;;;;27.55;38.28;101596.72;5046872;28;45253;-82
2023/05/28 10:53:11;;;;;;;;;23.33;20.33;;;;;27.06;39.80;101512.22;5043250;28;45558;-83
2023/05/28 10:55:57;;;;;;;;;7.67;7.67;;;;;27.49;38.91;101605.53;5052709;28;45453;-84
2023/05/28 10:58:53;;;;;;;;;17.00;16.67;;;;;27.36;38.80;101548.88;5050481;28;45729;-85
2023/05/28 11:01:31;;;;;;;;;18.00;17.33;;;;;27.36;39.13;101551.59;5035414;28;45404;-84
2023/05/28 11:04:22;;;;;;;;;9.00;7.67;;;;;27.21;40.16;101521.47;5041343;28;45303;-83
2023/05/28 11:07:01;;;;;;;;;9.67;8.67;;;;;27.27;40.14;101518.09;5029993;28;45546;-84
2023/05/28 11:09:56;;;;;;;;;21.67;19.67;;;;;27.27;40.65;101512.66;5060786;28;45641;-84
2023/05/28 11:12:53;;;;;;;;;;;;;;;;;;;;;
2023/05/28 11:15:31;;;;;;;;;6.00;5.00;;;;;27.38;38.47;101506.97;5054457;28;68929;-85
2023/05/28 11:18:00;;;;;;;;;21.33;18.00;;;;;27.40;39.34;101494.03;5051832;28;45475;-84
2023/05/28 11:20:27;;;;;;;;;15.00;10.00;;;;;27.62;38.58;101508.91;5037698;28;45378;-84
2023/05/28 11:23:09;;;;;;;;;10.00;9.00;;;;;27.69;37.00;101500.94;5053114;28;45426;-84
2023/05/28 11:25:42;;;;;;;;;6.67;6.33;;;;;27.84;35.78;101524.63;5040824;28;45341;-82
2023/05/28 11:28:08;;;;;;;;;8.33;7.00;;;;;27.63;36.32;101501.63;5057758;28;45458;-85
2023/05/28 11:30:53;;;;;;;;;16.00;11.33;;;;;27.89;36.38;101521.38;5035167;28;48046;-83
2023/05/28 11:33:29;;;;;;;;;15.00;13.33;;;;;28.09;35.43;101538.28;5043789;28;45352;-84
2023/05/28 11:36:21;;;;;;;;;8.67;7.00;;;;;28.48;36.02;101563.81;5042709;28;45322;-83
2023/05/28 11:39:09;;;;;;;;;9.33;7.67;;;;;28.21;35.27;101496.13;5038305;28;45538;-82
2023/05/28 11:42:01;;;;;;;;;11.33;9.00;;;;;28.78;34.65;101560.44;5041552;28;46655;-88
2023/05/28 11:44:31;;;;;;;;;11.67;10.33;;;;;28.76;34.09;101545.31;5040357;28;45669;-86
2023/05/28 11:47:03;;;;;;;;;7.67;7.00;;;;;28.91;34.82;101570.81;5042108;28;45461;-85
2023/05/28 11:49:39;;;;;;;;;6.00;5.00;;;;;28.53;34.56;101495.28;5040756;28;46123;-88
2023/05/28 11:52:30;;;;;;;;;6.33;6.33;;;;;28.82;34.01;101550.91;5034190;28;46417;-87
2023/05/28 11:55:01;;;;;;;;;7.67;6.67;;;;;28.61;33.72;101497.97;5059314;28;45351;-87
2023/05/28 11:57:28;;;;;;;;;13.67;13.67;;;;;28.78;33.87;101499.69;5031265;28;45311;-89
2023/05/28 12:00:15;;;;;;;;;7.00;5.00;;;;;28.98;34.72;101530.09;5049804;28;45388;-87
2023/05/28 12:02:49;;;;;;;;;8.00;6.00;;;;;28.88;35.15;101519.41;5052509;28;45409;-89
2023/05/28 12:05:18;;;;;;;;;7.00;5.67;;;;;29.15;33.82;101529.03;5041861;28;45595;-88
2023/05/28 12:07:52;;;;;;;;;5.67;5.67;;;;;29.16;35.05;101523.41;5039935;28;45430;-87
2023/05/28 12:10:26;;;;;;;;;5.33;5.00;;;;;29.00;35.35;101479.88;5053490;28;45453;-88
2023/05/28 12:12:56;;;;;;;;;5.00;4.67;;;;;29.09;33.90;101506.06;5042536;28;48470;-88
2023/05/28 12:15:31;;;;;;;;;11.33;8.00;;;;;29.28;35.98;101526.66;5060946;28;45285;-86
2023/05/28 12:18:02;;;;;;;;;7.33;6.33;;;;;29.14;33.77;101473.69;5048378;28;45357;-88
2023/05/28 12:20:38;;;;;;;;;10.00;6.67;;;;;29.71;34.96;101544.34;5041395;28;45514;-89
2023/05/28 12:23:11;;;;;;;;;6.00;6.00;;;;;29.76;35.14;101526.41;5058925;28;47190;-88
2023/05/28 12:25:43;;;;;;;;;7.33;7.33;;;;;29.91;35.21;101534.69;5039642;28;45481;-88
2023/05/28 12:28:13;;;;;;;;;7.33;7.00;;;;;29.99;34.93;101515.53;5052506;28;45598;-88
2023/05/28 12:30:50;;;;;;;;;7.00;6.00;;;;;30.38;35.26;101551.75;5042434;28;45561;-87
2023/05/28 12:33:56;;;;;;;;;6.00;6.00;;;;;29.90;33.71;101452.03;5041022;28;45842;-87
2023/05/28 12:36:27;;;;;;;;;6.00;5.00;;;;;29.91;32.04;101453.69;5059244;28;45368;-89
2023/05/28 12:38:58;;;;;;;;;0.67;0.00;;;;;30.10;31.67;101504.22;5025773;28;45389;-86
2023/05/28 12:41:35;;;;;;;;;8.67;4.00;;;;;30.12;33.28;101501.28;5048784;28;45325;-88
2023/05/28 12:44:01;;;;;;;;;6.00;6.00;;;;;30.48;33.53;101530.53;5031089;28;47311;-87
2023/05/28 12:46:26;;;;;;;;;3.67;3.00;;;;;29.97;31.65;101436.59;5050763;28;45497;-88
2023/05/28 12:48:56;;;;;;;;;7.33;6.33;;;;;30.42;31.62;101506.72;5059619;28;45340;-87
2023/05/28 12:51:41;;;;;;;;;9.00;9.00;;;;;30.67;33.85;101488.19;5055973;28;45495;-86
2023/05/28 12:54:10;;;;;;;;;9.00;8.00;;;;;30.55;31.57;101467.84;5054928;28;46619;-85
2023/05/28 12:56:46;;;;;;;;;6.67;6.00;;;;;30.75;32.81;101481.81;5054003;28;45525;-86
2023/05/28 12:59:25;;;;;;;;;6.00;5.33;;;;;31.12;32.81;101505.50;5047307;28;45464;-87
2023/05/28 13:01:51;;;;;;;;;7.00;7.00;;;;;31.18;32.13;101511.06;5052936;28;45237;-88
2023/05/28 13:04:23;;;;;;;;;6.00;5.67;;;;;31.02;32.34;101459.34;5037762;28;45541;-87
2023/05/28 13:06:51;;;;;;;;;6.67;6.00;;;;;31.46;31.26;101503.84;5043896;28;45606;-87
2023/05/28 13:09:19;;;;;;;;;7.00;6.33;;;;;31.40;31.20;101452.66;5059531;28;45369;-88
2023/05/28 13:12:08;;;;;;;;;6.00;6.00;;;;;31.66;30.41;101497.81;5049613;28;45882;-85
2023/05/28 13:14:34;;;;;;;;;6.33;5.33;;;;;31.32;31.15;101419.09;5072384;28;47971;-86
2023/05/28 13:17:09;;;;;;;;;8.33;6.33;;;;;31.63;30.79;101457.16;5074840;28;45435;-85
2023/05/28 13:19:37;;;;;;;;;4.67;4.67;;;;;31.85;29.98;101451.50;5048479;28;45881;-85
2023/05/28 13:22:09;;;;;;;;;6.67;6.33;;;;;31.93;31.34;101461.50;5054276;28;45349;-85
2023/05/28 13:24:34;;;;;;;;;5.67;4.00;;;;;32.25;30.95;101498.44;5054396;28;46870;-86
2023/05/28 13:27:00;;;;;;;;;5.00;5.00;;;;;32.11;31.25;101450.94;5055165;28;45396;-86
2023/05/28 13:30:16;;;;;;;;;8.67;5.00;;;;;31.95;32.17;101426.53;5057848;28;45381;-85
2023/05/28 13:32:41;;;;;;;;;6.00;6.00;;;;;32.23;30.50;101465.78;5043483;28;45375;-85
2023/05/28 13:35:14;;;;;;;;;4.67;4.67;;;;;32.17;30.62;101417.28;5057437;28;47107;-85
2023/05/28 13:37:39;;;;;;;;;6.00;6.00;;;;;32.72;31.58;101471.28;5044653;28;45451;-85
2023/05/28 13:40:14;;;;;;;;;6.00;6.00;;;;;32.79;32.94;101449.38;5063105;28;45357;-86
2023/05/28 13:42:40;;;;;;;;;5.33;4.00;;;;;32.84;30.96;101408.50;5059420;28;45519;-85
2023/05/28 13:45:07;;;;;;;;;8.00;5.67;;;;;33.07;31.03;101419.16;5059121;28;47075;-86
2023/05/28 13:47:33;;;;;;;;;4.00;4.00;;;;;33.22;29.46;101434.44;5057753;28;45482;-85
2023/05/28 13:49:59;;;;;;;;;4.00;4.00;;;;;33.40;31.47;101456.69;5059382;28;45230;-84
2023/05/28 13:52:27;;;;;;;;;4.67;4.67;;;;;33.45;28.62;101445.06;5075474;28;45316;-86
2023/05/28 13:54:57;;;;;;;;;5.33;5.33;;;;;33.34;28.15;101427.34;5077032;28;47308;-85
2023/05/28 13:57:30;;;;;;;;;6.00;5.00;;;;;33.49;28.76;101443.63;5077476;28;45301;-87
2023/05/28 13:59:56;;;;;;;;;7.00;7.00;;;;;33.37;30.76;101440.63;5058284;28;45493;-86
2023/05/28 14:02:24;;;;;;;;;5.67;5.00;;;;;33.36;29.52;101396.94;5061335;28;45545;-87
2023/05/28 14:04:49;;;;;;;;;5.00;5.00;;;;;33.50;29.23;101405.00;5077272;27;45485;-86
2023/05/28 14:07:17;;;;;;;;;7.33;5.33;;;;;33.85;30.61;101421.34;5057755;28;45529;-85
2023/05/28 14:09:43;;;;;;;;;5.33;5.00;;;;;33.98;30.54;101435.94;5058710;28;45248;-85
2023/05/28 14:12:18;;;;;;;;;7.33;4.33;;;;;34.12;28.99;101427.72;5059513;28;45609;-85
2023/05/28 14:14:45;;;;;;;;;9.33;5.00;;;;;33.93;27.89;101393.69;5043827;28;47274;-85
2023/05/28 14:17:14;;;;;;;;;6.00;6.00;;;;;33.72;30.06;101371.94;5046978;28;45312;-86
2023/05/28 14:19:40;;;;;;;;;6.67;5.67;;;;;33.88;31.44;101404.44;5058516;28;45574;-87
2023/05/28 14:22:07;;;;;;;;;5.67;5.00;;;;;34.06;30.94;101428.53;5075878;28;45545;-86
2023/05/28 14:24:41;;;;;;;;;5.00;5.00;;;;;34.03;28.70;101402.38;5058726;28;46075;-86
2023/05/28 14:27:12;;;;;;;;;6.00;6.00;;;;;34.23;29.62;101433.41;5059027;28;45466;-88
2023/05/28 14:29:38;;;;;;;;;7.33;5.00;;;;;34.06;27.62;101381.88;5059922;28;45419;-87
2023/05/28 14:32:04;;;;;;;;;5.67;4.00;;;;;34.41;31.88;101422.66;5045385;28;45249;-88
2023/05/28 14:34:30;;;;;;;;;7.00;7.00;;;;;34.65;29.56;101420.31;5074300;28;48083;-89
2023/05/28 14:36:59;;;;;;;;;9.33;6.00;;;;;34.60;28.18;101396.19;5056803;28;45496;-86
2023/05/28 14:39:25;;;;;;;;;6.67;6.00;;;;;34.56;29.07;101405.91;5054433;28;45478;-90
2023/05/28 14:41:53;;;;;;;;;3.00;3.00;;;;;34.66;29.56;101422.84;5072752;28;45601;-89
2023/05/28 14:44:19;;;;;;;;;5.00;5.00;;;;;34.75;29.38;101424.28;5063927;28;45442;-89
2023/05/28 14:46:45;;;;;;;;;4.33;4.33;;;;;34.53;28.49;101396.19;5069376;28;45344;-85
2023/05/28 14:49:12;;;;;;;;;8.67;5.33;;;;;34.37;27.23;101382.06;5073163;28;45497;-88
2023/05/28 14:51:38;;;;;;;;;3.33;3.33;;;;;34.32;28.02;101371.75;5056312;28;45373;-88
2023/05/28 14:54:10;;;;;;;;;5.00;5.00;;;;;34.43;28.48;101361.97;5056731;28;47871;-88
2023/05/28 14:56:35;;;;;;;;;3.00;3.00;;;;;34.62;28.33;101387.78;5057338;28;45515;-88
2023/05/28 14:59:01;;;;;;;;;6.33;5.00;;;;;34.97;29.36;101413.88;5053721;28;45368;-87
2023/05/28 15:01:30;;;;;;;;;6.00;6.00;;;;;35.00;27.32;101395.03;5053827;28;45689;-88
2023/05/28 15:03:56;;;;;;;;;9.33;5.00;;;;;34.69;27.96;101347.34;5058302;28;45407;-88
2023/05/28 15:06:26;;;;;;;;;6.67;5.67;;;;;35.04;26.76;101414.69;5056719;28;45333;-88
2023/05/28 15:08:51;;;;;;;;;3.33;3.33;;;;;34.98;27.94;101385.31;5052316;28;45417;-89
2023/05/28 15:11:36;;;;;;;;;7.00;5.00;;;;;34.79;28.05;101388.97;5061923;28;45456;-89
2023/05/28 15:14:19;;;;;;;;;7.33;4.33;;;;;34.94;28.38;101397.81;5058266;28;46635;-88
2023/05/28 15:16:45;;;;;;;;;4.00;4.00;;;;;34.86;27.97;101379.63;5061831;28;45466;-89
2023/05/28 15:19:16;;;;;;;;;5.00;5.00;;;;;35.29;27.42;101417.56;5057518;28;45471;-87
2023/05/28 15:21:46;;;;;;;;;5.00;4.00;;;;;35.27;25.66;101420.56;5054313;28;45233;-88
2023/05/28 15:24:33;;;;;;;;;6.00;5.00;;;;;34.64;25.44;101344.41;5054485;28;48025;-88
2023/05/28 15:27:02;;;;;;;;;6.67;5.00;;;;;34.80;28.17;101383.25;5058424;28;45538;-87
2023/05/28 15:29:31;;;;;;;;;5.00;5.00;;;;;34.99;28.08;101397.97;5069024;28;45338;-86
2023/05/28 15:32:18;;;;;;;;;4.67;4.67;;;;;34.75;27.40;101382.22;5057800;28;45387;-87
2023/05/28 15:34:54;;;;;;;;;5.67;4.00;;;;;34.95;28.34;101416.81;5058871;28;46548;-87
2023/05/28 15:37:27;;;;;;;;;5.00;5.00;;;;;34.61;26.47;101350.34;5033616;28;45476;-87
2023/05/28 15:39:53;;;;;;;;;2.67;2.67;;;;;34.92;26.19;101391.66;5025116;28;45416;-86
2023/05/28 15:42:19;;;;;;;;;7.00;6.00;;;;;34.66;25.16;101356.03;5040168;28;45631;-88
2023/05/28 15:44:57;;;;;;;;;5.00;4.00;;;;;34.51;26.04;101320.53;5022090;28;47341;-88
2023/05/28 15:47:25;;;;;;;;;3.33;3.33;;;;;34.86;26.80;101359.53;5015548;28;45438;-88
2023/05/28 15:49:51;;;;;;;;;8.33;6.00;;;;;34.80;27.72;101347.53;5024113;28;45599;-86
2023/05/28 15:52:37;;;;;;;;;4.00;4.00;;;;;35.20;27.47;101405.13;5022814;28;45742;-88
2023/05/28 15:55:03;;;;;;;;;4.00;4.00;;;;;34.79;26.79;101329.34;5038993;28;45556;-87
2023/05/28 15:57:29;;;;;;;;;6.67;5.33;;;;;34.72;26.26;101358.75;5020477;28;45497;-82
2023/05/28 15:59:57;;;;;;;;;3.67;2.67;;;;;34.78;27.45;101410.13;5049518;28;45500;-83
2023/05/28 16:02:39;;;;;;;;;7.33;3.67;;;;;34.78;26.48;101382.66;5019095;28;45310;-83
2023/05/28 16:05:06;;;;;;;;;4.33;4.00;;;;;34.63;26.15;101383.94;5010680;28;45498;-81
2023/05/28 16:07:35;;;;;;;;;5.33;5.33;;;;;34.28;28.00;101320.19;5029612;28;45230;-81
2023/05/28 16:10:00;;;;;;;;;5.33;4.33;;;;;34.20;27.02;101324.00;5024901;28;45364;-85
2023/05/28 16:12:35;;;;;;;;;5.33;4.67;;;;;34.35;27.80;101345.75;5016919;28;45686;-85
2023/05/28 16:15:06;;;;;;;;;5.00;5.00;;;;;34.28;25.47;101336.66;5011515;28;47101;-83
2023/05/28 16:17:41;;;;;;;;;4.00;2.67;;;;;34.32;27.44;101352.50;5038907;28;45421;-88
2023/05/28 16:20:09;;;;;;;;;7.00;6.00;;;;;34.42;28.15;101376.78;5043485;28;45377;-85
2023/05/28 16:22:59;;;;;;;;;6.00;5.33;;;;;34.14;25.86;101382.53;5024095;28;45560;-83
2023/05/28 16:25:26;;;;;;;;;2.00;0.00;;;;;33.96;27.22;101347.47;5025018;28;46097;-87
2023/05/28 16:27:54;;;;;;;;;5.00;4.00;;;;;34.06;27.37;101355.25;5015357;28;45323;-86
2023/05/28 16:30:29;;;;;;;;;5.67;4.67;;;;;33.86;27.07;101319.59;5019144;28;45307;-86
2023/05/28 16:33:01;;;;;;;;;5.67;4.67;;;;;34.32;27.28;101379.13;5007508;28;45358;-86
2023/05/28 16:35:35;;;;;;;;;6.00;5.00;;;;;34.47;26.48;101344.84;5019681;28;47266;-86
2023/05/28 16:38:16;;;;;;;;;6.33;5.00;;;;;34.67;26.46;101361.31;5059237;28;45356;-86
2023/05/28 16:40:51;;;;;;;;;5.33;5.33;;;;;35.57;26.16;101408.94;5037953;28;45645;-87
2023/05/28 16:43:31;;;;;;;;;9.00;6.67;;;;;35.61;25.43;101325.72;5036106;28;45882;-87
2023/05/28 16:45:58;;;;;;;;;5.67;5.67;;;;;36.93;23.62;101388.66;5033126;28;47360;-87
2023/05/28 16:48:44;;;;;;;;;8.00;4.33;;;;;37.70;23.82;101389.78;5036649;28;45321;-86
2023/05/28 16:51:21;;;;;;;;;5.00;3.33;;;;;38.86;22.99;101385.16;5037530;28;45517;-86
2023/05/28 16:53:50;;;;;;;;;6.00;4.00;;;;;39.51;21.79;101343.28;5040567;28;45591;-87
2023/05/28 16:56:36;;;;;;;;;4.33;4.33;;;;;40.02;21.08;101317.28;5039975;28;45524;-84
2023/05/28 16:59:29;;;;;;;;;;;;;;;;;;;;;
2023/05/28 17:02:10;;;;;;;;;8.33;7.00;;;;;40.81;21.26;101365.84;5039022;28;68642;-86
2023/05/28 17:04:42;;;;;;;;;8.00;6.00;;;;;40.72;19.91;101323.00;5040245;28;46237;-87
2023/05/28 17:07:38;;;;;;;;;5.67;5.67;;;;;40.97;19.69;101315.00;5030999;28;47876;-86
2023/05/28 17:10:11;;;;;;;;;4.00;4.00;;;;;41.13;19.82;101354.91;5040596;28;45317;-84
2023/05/28 17:13:04;;;;;;;;;8.00;6.00;;;;;40.75;20.19;101333.59;5040494;28;45707;-85
2023/05/28 17:15:39;;;;;;;;;6.00;5.67;;;;;41.02;20.10;101367.81;5059227;28;45348;-85
2023/05/28 17:18:22;;;;;;;;;9.33;6.67;;;;;40.66;20.57;101317.66;5039995;28;47335;-85
2023/05/28 17:20:55;;;;;;;;;7.67;5.00;;;;;40.63;20.26;101330.13;5039188;28;45412;-86
2023/05/28 17:23:37;;;;;;;;;;;;;;;;;;;;;
2023/05/28 17:26:14;;;;;;;;;4.67;4.67;;;;;40.24;20.28;101315.44;5056538;28;72632;-86
2023/05/28 17:28:57;;;;;;;;;7.00;6.67;;;;;39.97;21.19;101315.25;5034867;28;46381;-86
2023/05/28 17:31:47;;;;;;;;;7.33;4.00;;;;;39.87;20.94;101336.44;5036801;28;45516;-88
2023/05/28 17:34:12;;;;;;;;;5.33;5.33;;;;;40.07;21.61;101365.31;5056619;28;45387;-86
2023/05/28 17:36:41;;;;;;;;;6.00;6.00;;;;;40.13;21.36;101365.41;5052029;28;45589;-85